Time;durP1;ratioP1;P1;durP2;ratioP2;P2;SDS_P1;SDS_P2;PMS_P1;PMS_P2;Temp;Humidity;BMP_temperature;BMP_pressure;BME280_temperature;BME280_humidity;BME280_pressure;Samples;Min_cycle;Max_cycle;Signal;HPM_P1;HPM_P2
2023/11/07 00:00:52;;;;;;;1.20;0.83;;;;;;;8.47;80.42;100258.97;4988781;28;20209;-73
2023/11/07 00:03:19;;;;;;;1.00;0.90;;;;;;;8.43;80.74;100265.22;4992782;28;20212;-72
2023/11/07 00:05:45;;;;;;;2.30;1.00;;;;;;;8.38;80.63;100268.78;4989196;28;20229;-73
2023/11/07 00:08:11;;;;;;;2.30;1.10;;;;;;;8.35;80.90;100272.06;4994838;28;20205;-73
2023/11/07 00:10:38;;;;;;;0.63;0.63;;;;;;;8.31;81.09;100276.41;4996923;28;20230;-73
2023/11/07 00:13:04;;;;;;;2.20;0.87;;;;;;;8.30;81.99;100281.97;4991184;28;20213;-73
2023/11/07 00:15:32;;;;;;;3.00;1.00;;;;;;;8.29;82.34;100280.44;4992992;28;20230;-73
2023/11/07 00:17:58;;;;;;;0.90;0.90;;;;;;;8.29;82.07;100280.44;4992115;28;20237;-73
2023/11/07 00:20:25;;;;;;;2.70;0.70;;;;;;;8.32;82.56;100274.53;4991950;28;20211;-73
2023/11/07 00:22:51;;;;;;;0.97;0.73;;;;;;;8.33;82.85;100283.97;5006985;28;20213;-73
2023/11/07 00:25:18;;;;;;;0.60;0.60;;;;;;;8.36;83.02;100280.69;5015328;23;20265;-71
2023/11/07 00:27:44;;;;;;;1.77;1.07;;;;;;;8.39;83.14;100280.84;5031717;28;20579;-71
2023/11/07 00:30:11;;;;;;;1.03;0.80;;;;;;;8.41;83.37;100285.78;5013983;28;20219;-71
2023/11/07 00:32:39;;;;;;;2.30;1.00;;;;;;;8.44;83.47;100291.19;5031956;28;20207;-71
2023/11/07 00:35:06;;;;;;;0.80;0.80;;;;;;;8.47;83.27;100289.78;5023875;28;20383;-71
2023/11/07 00:37:33;;;;;;;1.53;0.90;;;;;;;8.50;83.44;100294.41;5009887;28;20847;-71
2023/11/07 00:40:00;;;;;;;1.10;0.80;;;;;;;8.54;83.00;100297.97;5013767;28;20220;-71
2023/11/07 00:42:26;;;;;;;1.40;0.60;;;;;;;8.57;83.21;100297.31;4996823;28;20237;-69
2023/11/07 00:44:52;;;;;;;1.07;0.93;;;;;;;8.59;83.16;100306.41;5013827;28;20241;-71
2023/11/07 00:47:19;;;;;;;1.87;0.90;;;;;;;8.62;82.86;100310.28;5016209;28;20206;-69
2023/11/07 00:49:46;;;;;;;1.27;1.00;;;;;;;8.62;82.89;100303.16;5014208;28;20284;-71
2023/11/07 00:52:13;;;;;;;1.03;0.73;;;;;;;8.64;82.94;100302.84;5012785;28;20213;-71
2023/11/07 00:54:39;;;;;;;1.13;0.50;;;;;;;8.66;82.69;100306.72;5015278;28;20525;-70
2023/11/07 00:57:06;;;;;;;0.70;0.70;;;;;;;8.70;83.08;100322.63;5015912;28;20711;-70
2023/11/07 00:59:32;;;;;;;3.03;0.90;;;;;;;8.71;82.77;100319.69;5014878;28;20224;-71
2023/11/07 01:01:59;;;;;;;1.60;0.83;;;;;;;8.73;82.93;100320.13;5011492;28;20572;-71
2023/11/07 01:04:25;;;;;;;0.87;0.73;;;;;;;8.74;82.13;100323.50;5014528;28;20214;-71
2023/11/07 01:06:53;;;;;;;0.80;0.80;;;;;;;8.76;82.00;100324.75;4994089;28;20634;-71
2023/11/07 01:09:19;;;;;;;0.83;0.80;;;;;;;8.79;83.02;100331.22;5014797;28;20207;-71
2023/11/07 01:11:45;;;;;;;1.53;0.90;;;;;;;8.83;82.48;100338.19;5009226;28;20228;-71
2023/11/07 01:14:12;;;;;;;0.80;0.70;;;;;;;8.88;82.60;100343.28;5013622;28;20214;-71
2023/11/07 01:16:38;;;;;;;1.40;1.00;;;;;;;8.93;83.08;100342.31;5013549;28;20229;-71
2023/11/07 01:19:05;;;;;;;1.80;0.70;;;;;;;8.99;82.68;100346.28;5014710;28;20230;-72
2023/11/07 01:21:31;;;;;;;0.73;0.73;;;;;;;9.05;82.52;100350.28;4994876;28;20211;-71
2023/11/07 01:23:59;;;;;;;1.57;0.70;;;;;;;9.12;81.89;100351.31;5009576;28;20197;-72
2023/11/07 01:26:25;;;;;;;0.70;0.70;;;;;;;9.21;80.91;100353.91;5005739;28;20240;-71
2023/11/07 01:28:52;;;;;;;1.40;0.80;;;;;;;9.22;80.84;100344.91;5011530;28;20201;-70
2023/11/07 01:31:19;;;;;;;0.70;0.70;;;;;;;9.23;81.03;100352.47;5014212;28;20234;-71
2023/11/07 01:33:46;;;;;;;1.53;0.70;;;;;;;9.24;80.42;100359.28;5013446;28;20737;-71
2023/11/07 01:36:12;;;;;;;0.70;0.60;;;;;;;9.25;80.93;100354.78;4993697;28;20230;-71
2023/11/07 01:38:39;;;;;;;0.60;0.60;;;;;;;9.27;80.68;100360.50;4993944;28;20874;-71
2023/11/07 01:41:07;;;;;;;1.97;0.83;;;;;;;9.33;80.45;100364.50;5011500;28;20208;-70
2023/11/07 01:43:33;;;;;;;0.80;0.80;;;;;;;9.38;79.59;100364.31;5011440;28;20248;-71
2023/11/07 01:46:02;;;;;;;0.67;0.67;;;;;;;9.43;79.15;100364.09;5008844;28;20230;-71
2023/11/07 01:48:29;;;;;;;2.47;0.80;;;;;;;9.48;79.50;100363.91;5014592;28;20481;-70
2023/11/07 01:50:56;;;;;;;0.80;0.80;;;;;;;9.54;79.90;100362.63;4992632;28;20209;-71
2023/11/07 01:53:23;;;;;;;0.70;0.70;;;;;;;9.57;79.23;100357.47;5013526;28;20191;-69
2023/11/07 01:55:50;;;;;;;2.03;0.67;;;;;;;9.59;80.22;100368.47;5011545;28;20238;-70
2023/11/07 01:58:21;;;;;;;1.30;0.63;;;;;;;9.58;78.94;100369.53;5013401;28;20230;-71
2023/11/07 02:00:48;;;;;;;0.60;0.60;;;;;;;9.60;78.08;100372.66;5011657;28;20287;-69
2023/11/07 02:03:15;;;;;;;1.37;0.80;;;;;;;9.59;78.63;100368.47;5010451;28;21649;-70
2023/11/07 02:05:41;;;;;;;1.47;1.07;;;;;;;9.54;77.21;100373.94;5010269;28;20235;-70
2023/11/07 02:08:09;;;;;;;0.70;0.70;;;;;;;9.52;78.94;100367.44;5010502;28;20188;-69
2023/11/07 02:10:37;;;;;;;0.70;0.70;;;;;;;9.47;78.11;100376.31;5011048;28;20223;-70
2023/11/07 02:13:03;;;;;;;0.60;0.60;;;;;;;9.43;78.35;100372.75;5013173;28;20361;-69
2023/11/07 02:15:31;;;;;;;1.57;0.80;;;;;;;9.42;77.95;100381.00;5013168;28;20231;-69
2023/11/07 02:17:58;;;;;;;2.47;0.70;;;;;;;9.43;78.06;100382.56;5009002;28;20220;-70
2023/11/07 02:20:24;;;;;;;1.97;0.67;;;;;;;9.43;78.44;100388.59;5009646;28;20223;-70
2023/11/07 02:22:54;;;;;;;2.43;0.80;;;;;;;9.45;77.97;100385.63;5007745;28;20215;-70
2023/11/07 02:25:22;;;;;;;1.47;0.83;;;;;;;9.49;79.63;100383.91;5013136;28;20232;-70
2023/11/07 02:27:48;;;;;;;0.93;0.77;;;;;;;9.50;78.28;100391.50;4997082;28;20203;-70
2023/11/07 02:30:15;;;;;;;0.60;0.60;;;;;;;9.51;79.09;100386.97;5009986;28;20211;-70
2023/11/07 02:32:42;;;;;;;2.30;0.80;;;;;;;9.52;77.41;100393.81;5010839;28;20219;-69
2023/11/07 02:35:10;;;;;;;0.97;0.97;;;;;;;9.53;77.54;100385.56;5010319;28;20219;-70
2023/11/07 02:37:37;;;;;;;1.13;0.60;;;;;;;9.55;76.94;100388.66;5010880;28;20216;-70
2023/11/07 02:40:04;;;;;;;0.50;0.50;;;;;;;9.57;77.69;100388.34;5012915;28;20742;-70
2023/11/07 02:42:31;;;;;;;0.67;0.60;;;;;;;9.58;77.24;100393.28;5013083;28;20843;-70
2023/11/07 02:44:58;;;;;;;1.30;1.00;;;;;;;9.62;78.19;100401.31;5012003;28;20326;-70
2023/11/07 02:47:25;;;;;;;0.60;0.60;;;;;;;9.63;77.03;100398.34;5013560;28;20211;-70
2023/11/07 02:49:52;;;;;;;0.97;0.73;;;;;;;9.67;77.70;100393.97;5008813;28;20222;-68
2023/11/07 02:52:20;;;;;;;0.90;0.60;;;;;;;9.70;76.78;100398.63;5012430;28;20231;-70
2023/11/07 02:54:47;;;;;;;0.60;0.60;;;;;;;9.74;78.36;100399.47;5009253;28;20279;-69
2023/11/07 02:57:13;;;;;;;0.83;0.73;;;;;;;9.77;77.55;100408.63;5010343;28;20215;-70
2023/11/07 02:59:41;;;;;;;1.43;0.70;;;;;;;9.78;77.62;100407.53;5010958;28;20224;-68
2023/11/07 03:02:07;;;;;;;0.70;0.67;;;;;;;9.78;76.14;100405.66;5007515;28;20201;-69
2023/11/07 03:04:33;;;;;;;0.80;0.67;;;;;;;9.79;76.99;100414.34;5010989;28;20212;-70
2023/11/07 03:07:00;;;;;;;1.60;0.87;;;;;;;9.81;75.68;100414.78;5013897;28;20219;-69
2023/11/07 03:09:27;;;;;;;1.00;0.90;;;;;;;9.78;78.42;100416.22;5012114;28;20214;-70
2023/11/07 03:11:53;;;;;;;1.77;0.70;;;;;;;9.79;78.33;100422.28;5012026;28;20210;-70
2023/11/07 03:14:19;;;;;;;0.80;0.77;;;;;;;9.76;77.87;100423.69;5007616;28;21841;-70
2023/11/07 03:16:47;;;;;;;1.17;0.80;;;;;;;9.74;76.38;100425.09;5012476;28;20812;-69
2023/11/07 03:19:13;;;;;;;0.60;0.60;;;;;;;9.68;75.64;100427.16;4996158;28;20228;-69
2023/11/07 03:21:40;;;;;;;1.87;0.80;;;;;;;9.65;76.44;100425.19;5009932;28;20208;-69
2023/11/07 03:24:08;;;;;;;0.60;0.60;;;;;;;9.59;76.83;100426.47;5009434;28;20220;-68
2023/11/07 03:26:34;;;;;;;0.70;0.70;;;;;;;9.52;77.92;100434.09;5008763;28;20241;-69
2023/11/07 03:29:01;;;;;;;1.13;0.70;;;;;;;9.45;76.65;100435.69;5009920;28;20597;-68
2023/11/07 03:31:27;;;;;;;0.80;0.80;;;;;;;9.38;77.82;100446.75;5006122;28;20193;-69
2023/11/07 03:33:55;;;;;;;2.30;0.90;;;;;;;9.30;77.23;100442.31;5009039;28;20211;-70
2023/11/07 03:36:21;;;;;;;0.63;0.60;;;;;;;9.25;78.50;100447.78;5012617;28;20236;-69
2023/11/07 03:38:48;;;;;;;1.13;0.80;;;;;;;9.19;78.13;100445.63;5011376;28;20229;-70
2023/11/07 03:41:14;;;;;;;2.87;1.10;;;;;;;9.14;78.55;100446.59;5009032;28;20280;-70
2023/11/07 03:43:41;;;;;;;1.67;0.80;;;;;;;9.07;77.94;100450.81;4994512;28;20226;-69
2023/11/07 03:46:07;;;;;;;1.07;0.70;;;;;;;9.00;78.55;100440.78;5007744;28;20231;-69
2023/11/07 03:48:34;;;;;;;1.63;0.60;;;;;;;8.96;78.47;100439.09;4994094;28;20215;-69
2023/11/07 03:51:01;;;;;;;0.80;0.80;;;;;;;8.89;79.16;100446.72;5011802;28;20673;-69
2023/11/07 03:53:28;;;;;;;3.13;0.80;;;;;;;8.84;79.60;100450.31;5008990;28;20214;-70
2023/11/07 03:55:54;;;;;;;0.83;0.70;;;;;;;8.77;79.29;100454.50;5010085;28;20590;-70
2023/11/07 03:58:20;;;;;;;0.77;0.77;;;;;;;8.70;79.75;100457.63;5009771;28;20553;-69
2023/11/07 04:00:47;;;;;;;1.80;0.80;;;;;;;8.64;79.82;100452.88;5010749;28;20225;-69
2023/11/07 04:03:13;;;;;;;1.60;0.83;;;;;;;8.59;79.79;100450.41;5011776;28;20202;-69
2023/11/07 04:05:39;;;;;;;1.57;0.80;;;;;;;8.51;80.03;100459.09;5007192;28;20248;-70
2023/11/07 04:08:07;;;;;;;1.70;0.80;;;;;;;8.44;80.23;100453.56;5009271;28;20217;-69
2023/11/07 04:10:33;;;;;;;0.60;0.60;;;;;;;8.37;80.57;100447.97;5011277;28;20204;-70
2023/11/07 04:13:05;;;;;;;1.43;0.73;;;;;;;8.32;80.72;100456.03;5015195;28;20679;-69
2023/11/07 04:15:31;;;;;;;0.70;0.70;;;;;;;8.26;80.98;100457.28;5016762;28;20232;-69
2023/11/07 04:17:58;;;;;;;2.00;0.60;;;;;;;8.21;81.04;100457.44;5013613;28;20876;-69
2023/11/07 04:20:24;;;;;;;1.87;0.70;;;;;;;8.13;81.24;100461.63;5010887;28;20650;-70
2023/11/07 04:22:51;;;;;;;2.10;0.60;;;;;;;8.08;81.40;100466.28;5016690;28;20567;-69
2023/11/07 04:25:19;;;;;;;0.90;0.80;;;;;;;8.04;82.08;100460.09;5014856;28;20240;-69
2023/11/07 04:27:46;;;;;;;1.50;0.87;;;;;;;7.98;81.56;100458.69;5015857;28;20686;-69
2023/11/07 04:30:13;;;;;;;1.07;0.83;;;;;;;7.93;82.13;100461.50;5013559;28;20225;-69
2023/11/07 04:32:40;;;;;;;1.77;0.70;;;;;;;7.90;82.55;100467.34;5015626;28;20204;-68
2023/11/07 04:35:09;;;;;;;1.90;1.00;;;;;;;7.86;83.03;100471.69;5016395;28;20241;-69
2023/11/07 04:37:37;;;;;;;3.03;1.50;;;;;;;7.81;82.79;100472.63;5017398;28;20859;-69
2023/11/07 04:40:05;;;;;;;1.70;0.63;;;;;;;7.78;83.70;100470.63;5015027;28;20239;-69
2023/11/07 04:42:32;;;;;;;0.90;0.73;;;;;;;7.77;83.77;100470.94;5016522;28;20299;-69
2023/11/07 04:44:59;;;;;;;2.73;0.80;;;;;;;7.74;83.40;100469.69;5012795;28;20359;-69
2023/11/07 04:47:26;;;;;;;1.30;0.90;;;;;;;7.73;83.89;100468.16;5015807;28;20881;-70
2023/11/07 04:49:52;;;;;;;1.37;0.80;;;;;;;7.69;83.34;100477.72;5018005;28;20279;-70
2023/11/07 04:52:19;;;;;;;1.10;0.80;;;;;;;7.66;84.04;100469.69;5017182;28;20290;-69
2023/11/07 04:54:45;;;;;;;1.77;0.80;;;;;;;7.63;84.10;100473.69;5014975;28;20250;-70
2023/11/07 04:57:12;;;;;;;0.70;0.70;;;;;;;7.62;84.42;100482.63;5015865;28;20611;-70
2023/11/07 04:59:39;;;;;;;1.97;0.87;;;;;;;7.60;84.11;100474.31;5015758;28;20243;-70
2023/11/07 05:02:06;;;;;;;1.90;0.77;;;;;;;7.59;84.10;100482.50;5014696;28;20208;-68
2023/11/07 05:04:33;;;;;;;0.93;0.63;;;;;;;7.56;84.53;100481.25;5013962;28;20213;-68
2023/11/07 05:07:00;;;;;;;1.50;0.90;;;;;;;7.55;84.27;100479.69;5016349;28;20208;-70
2023/11/07 05:09:26;;;;;;;2.30;1.00;;;;;;;7.51;84.02;100473.50;5013840;28;20221;-69
2023/11/07 05:11:54;;;;;;;1.77;1.07;;;;;;;7.48;83.81;100476.78;5016129;28;20208;-69
2023/11/07 05:14:20;;;;;;;0.87;0.83;;;;;;;7.45;84.03;100482.63;5012254;28;20282;-69
2023/11/07 05:16:48;;;;;;;1.60;1.10;;;;;;;7.42;84.39;100482.47;5014889;28;20323;-68
2023/11/07 05:19:17;;;;;;;1.27;0.97;;;;;;;7.38;84.95;100478.91;5013415;28;20231;-70
2023/11/07 05:21:43;;;;;;;3.27;1.20;;;;;;;7.34;85.37;100478.75;5013174;28;20296;-69
2023/11/07 05:24:09;;;;;;;3.60;1.10;;;;;;;7.32;85.16;100472.25;5011841;28;20207;-68
2023/11/07 05:26:36;;;;;;;5.13;2.00;;;;;;;7.29;85.48;100478.88;5012159;28;20244;-69
2023/11/07 05:29:03;;;;;;;4.40;2.90;;;;;;;7.26;84.91;100476.84;5006023;28;20215;-69
2023/11/07 05:31:30;;;;;;;7.63;3.97;;;;;;;7.23;85.36;100479.31;5011199;28;20282;-69
2023/11/07 05:33:59;;;;;;;13.23;6.00;;;;;;;7.20;85.87;100478.09;5011704;28;20597;-70
2023/11/07 05:36:26;;;;;;;8.77;5.37;;;;;;;7.17;85.90;100475.28;5012455;28;20232;-67
2023/11/07 05:38:53;;;;;;;7.40;4.43;;;;;;;7.15;85.13;100483.47;5015283;28;20219;-69
2023/11/07 05:41:19;;;;;;;7.40;4.10;;;;;;;7.12;85.43;100485.94;5011250;28;20196;-69
2023/11/07 05:43:46;;;;;;;5.17;3.07;;;;;;;7.10;85.98;100488.09;5013540;28;20211;-69
2023/11/07 05:46:12;;;;;;;5.10;3.00;;;;;;;7.07;85.79;100486.84;5015403;28;20701;-69
2023/11/07 05:48:39;;;;;;;3.77;2.40;;;;;;;7.06;86.60;100489.78;5014478;28;20211;-69
2023/11/07 05:51:07;;;;;;;2.17;1.60;;;;;;;7.03;85.95;100479.88;5014432;28;20223;-68
2023/11/07 05:53:33;;;;;;;3.03;2.13;;;;;;;7.03;86.09;100495.63;5012341;28;20212;-70
2023/11/07 05:56:01;;;;;;;2.40;1.80;;;;;;;7.01;85.87;100488.06;5012938;28;20259;-69
2023/11/07 05:58:27;;;;;;;13.37;2.77;;;;;;;6.99;85.89;100492.84;5013172;28;20290;-72
2023/11/07 06:00:54;;;;;;;5.23;2.30;;;;;;;6.96;86.54;100492.69;5013296;28;20302;-71
2023/11/07 06:03:20;;;;;;;3.73;2.00;;;;;;;6.94;87.09;100489.59;5014354;28;20213;-72
2023/11/07 06:05:46;;;;;;;4.57;1.97;;;;;;;6.92;86.40;100496.97;5010549;28;20690;-71
2023/11/07 06:08:14;;;;;;;5.23;2.53;;;;;;;6.88;86.12;100496.06;4997512;28;21630;-70
2023/11/07 06:10:41;;;;;;;3.63;2.40;;;;;;;6.85;86.74;100491.41;5010507;28;20227;-70
2023/11/07 06:13:07;;;;;;;2.63;2.27;;;;;;;6.83;87.05;100491.69;5013619;28;20214;-70
2023/11/07 06:15:33;;;;;;;2.60;2.13;;;;;;;6.83;87.95;100490.94;5015653;28;20224;-71
2023/11/07 06:18:00;;;;;;;7.80;2.50;;;;;;;6.82;87.66;100495.41;5014720;28;20209;-70
2023/11/07 06:20:26;;;;;;;3.00;2.00;;;;;;;6.80;87.14;100494.16;5013532;28;20225;-69
2023/11/07 06:22:52;;;;;;;4.17;2.00;;;;;;;6.79;87.33;100492.59;5019459;28;20888;-70
2023/11/07 06:25:21;;;;;;;4.10;2.90;;;;;;;6.79;87.58;100497.84;5014460;28;20224;-70
2023/11/07 06:27:49;;;;;;;2.37;1.80;;;;;;;6.78;87.75;100504.19;5013064;28;20674;-69
2023/11/07 06:30:16;;;;;;;1.80;1.50;;;;;;;6.77;87.81;100500.78;5017446;28;20210;-69
2023/11/07 06:32:42;;;;;;;1.47;1.23;;;;;;;6.75;87.85;100512.66;5016843;28;20679;-70
2023/11/07 06:35:09;;;;;;;3.47;1.33;;;;;;;6.76;87.15;100512.34;4998157;28;20227;-70
2023/11/07 06:37:36;;;;;;;2.00;1.60;;;;;;;6.76;87.50;100516.81;5017741;28;20232;-71
2023/11/07 06:40:13;;;;;;;1.80;1.63;;;;;;;6.77;87.66;100520.97;5015627;28;20294;-70
2023/11/07 06:42:41;;;;;;;4.77;2.40;;;;;;;6.77;87.29;100523.59;5015898;28;20199;-71
2023/11/07 06:45:11;;;;;;;4.50;1.83;;;;;;;6.78;88.70;100522.56;5014294;28;20235;-71
2023/11/07 06:47:39;;;;;;;5.73;2.27;;;;;;;6.78;88.71;100522.56;5014130;28;20268;-71
2023/11/07 06:50:08;;;;;;;7.57;2.60;;;;;;;6.81;88.46;100529.81;5018096;28;20204;-71
2023/11/07 06:52:35;;;;;;;6.70;1.87;;;;;;;6.82;88.72;100520.84;5016406;28;20209;-71
2023/11/07 06:55:01;;;;;;;3.73;1.50;;;;;;;6.88;89.01;100522.31;5018989;28;20598;-71
2023/11/07 06:57:28;;;;;;;6.40;1.50;;;;;;;6.93;88.94;100524.75;5015602;28;20212;-71
2023/11/07 06:59:57;;;;;;;4.17;1.53;;;;;;;6.96;89.12;100524.97;5015715;28;20299;-71
2023/11/07 07:02:23;;;;;;;1.80;1.40;;;;;;;7.00;88.91;100527.75;5015566;28;20203;-70
2023/11/07 07:04:50;;;;;;;3.67;1.57;;;;;;;7.07;89.49;100525.44;5016728;28;20232;-71
2023/11/07 07:07:17;;;;;;;3.17;1.60;;;;;;;7.13;88.75;100524.25;5019488;28;20215;-69
2023/11/07 07:09:43;;;;;;;4.27;2.13;;;;;;;7.19;89.11;100536.19;5017528;28;20200;-70
2023/11/07 07:12:09;;;;;;;3.60;1.60;;;;;;;7.28;89.55;100535.13;5017287;28;20207;-71
2023/11/07 07:14:36;;;;;;;2.77;1.90;;;;;;;7.37;89.79;100532.53;5020369;28;20507;-69
2023/11/07 07:17:07;;;;;;;4.27;1.93;;;;;;;7.41;89.49;100542.09;5018083;28;20236;-71
2023/11/07 07:19:37;;;;;;;4.07;1.63;;;;;;;7.49;89.29;100541.38;5019337;28;20221;-70
2023/11/07 07:22:06;;;;;;;3.47;1.43;;;;;;;7.61;89.12;100543.41;5019294;28;20200;-71
2023/11/07 07:24:32;;;;;;;4.83;2.17;;;;;;;7.67;88.78;100550.81;5018661;28;20212;-71
2023/11/07 07:26:59;;;;;;;4.27;2.03;;;;;;;7.78;89.11;100544.22;5021167;28;20206;-70
2023/11/07 07:29:26;;;;;;;2.70;2.00;;;;;;;7.89;89.29;100553.34;5018569;28;20683;-71
2023/11/07 07:31:53;;;;;;;2.63;1.70;;;;;;;7.97;88.64;100554.44;5014777;28;20212;-70
2023/11/07 07:34:20;;;;;;;3.70;2.10;;;;;;;8.07;88.58;100554.91;5013173;28;20200;-69
2023/11/07 07:36:47;;;;;;;2.10;1.90;;;;;;;8.16;88.13;100560.94;5013293;28;20706;-71
2023/11/07 07:39:27;;;;;;;2.20;2.00;;;;;;;8.29;88.35;100569.78;5018521;28;20708;-70
2023/11/07 07:41:55;;;;;;;6.83;1.60;;;;;;;8.43;88.09;100567.78;5018173;28;20229;-70
2023/11/07 07:44:22;;;;;;;2.47;1.77;;;;;;;8.55;87.65;100571.31;5016789;28;20214;-68
2023/11/07 07:46:51;;;;;;;4.13;1.80;;;;;;;8.69;88.02;100563.25;5016647;28;20231;-70
2023/11/07 07:49:17;;;;;;;1.80;1.40;;;;;;;8.81;86.99;100566.00;5013101;28;20394;-70
2023/11/07 07:51:46;;;;;;;3.27;1.50;;;;;;;8.95;87.15;100561.34;5012209;28;20225;-70
2023/11/07 07:54:12;;;;;;;1.83;1.40;;;;;;;9.08;86.66;100557.72;5012631;28;20529;-70
2023/11/07 07:56:38;;;;;;;1.90;1.20;;;;;;;9.22;85.25;100559.06;5020409;28;20269;-69
2023/11/07 07:59:05;;;;;;;2.80;1.40;;;;;;;9.32;85.90;100558.69;5022190;28;20199;-70
2023/11/07 08:01:33;;;;;;;4.57;1.47;;;;;;;9.48;84.31;100559.69;5019900;28;20902;-70
2023/11/07 08:03:59;;;;;;;1.40;1.20;;;;;;;9.54;85.01;100560.31;5014900;28;20231;-70
2023/11/07 08:06:26;;;;;;;1.10;1.00;;;;;;;9.62;84.69;100564.78;5016750;28;20235;-70
2023/11/07 08:08:53;;;;;;;4.37;1.10;;;;;;;9.70;83.85;100563.94;5018751;28;20230;-71
2023/11/07 08:11:21;;;;;;;3.27;0.90;;;;;;;9.78;82.88;100569.16;5022790;28;20202;-70
2023/11/07 08:13:47;;;;;;;1.97;1.10;;;;;;;9.85;83.80;100574.72;5020503;28;20194;-71
2023/11/07 08:16:13;;;;;;;1.10;1.00;;;;;;;9.91;83.66;100570.00;5018362;28;20220;-70
2023/11/07 08:18:40;;;;;;;2.63;1.00;;;;;;;9.98;83.35;100575.53;5021496;28;20211;-69
2023/11/07 08:21:07;;;;;;;2.40;1.00;;;;;;;10.05;81.87;100579.22;5018871;28;20219;-69
2023/11/07 08:23:34;;;;;;;1.10;0.87;;;;;;;10.14;81.60;100579.19;5020972;28;20294;-70
2023/11/07 08:26:03;;;;;;;1.13;0.90;;;;;;;10.20;81.52;100575.28;5020204;28;20233;-70
2023/11/07 08:28:29;;;;;;;1.80;1.10;;;;;;;10.27;80.83;100583.44;5018446;28;20263;-71
2023/11/07 08:30:57;;;;;;;2.00;1.03;;;;;;;10.34;79.37;100581.81;5019944;28;20682;-70
2023/11/07 08:33:23;;;;;;;3.77;1.20;;;;;;;10.43;79.94;100574.59;5019541;28;20208;-69
2023/11/07 08:35:50;;;;;;;3.07;1.20;;;;;;;10.50;79.38;100577.47;5017078;28;20310;-69
2023/11/07 08:38:16;;;;;;;2.50;0.90;;;;;;;10.58;79.17;100574.00;5022685;28;20217;-71
2023/11/07 08:40:43;;;;;;;2.60;0.90;;;;;;;10.68;77.89;100576.25;5017182;28;21292;-71
2023/11/07 08:43:12;;;;;;;1.53;0.90;;;;;;;10.77;78.24;100592.00;5018075;28;20210;-70
2023/11/07 08:45:39;;;;;;;3.00;1.10;;;;;;;10.86;77.69;100593.44;5019807;28;20830;-71
2023/11/07 08:48:06;;;;;;;4.37;1.00;;;;;;;10.94;78.16;100589.19;5019262;28;20205;-70
2023/11/07 08:50:32;;;;;;;2.20;1.03;;;;;;;11.00;79.54;100590.50;5019011;28;20294;-71
2023/11/07 08:53:04;;;;;;;2.10;0.93;;;;;;;11.09;75.07;100596.47;5019070;28;20218;-70
2023/11/07 08:55:31;;;;;;;2.20;0.83;;;;;;;11.15;78.29;100593.31;5019461;28;20231;-70
2023/11/07 08:57:58;;;;;;;3.23;1.40;;;;;;;11.21;76.29;100594.63;5018734;28;20211;-70
2023/11/07 09:00:27;;;;;;;1.33;0.87;;;;;;;11.29;76.97;100588.44;5021086;28;20211;-69
2023/11/07 09:02:54;;;;;;;3.60;1.10;;;;;;;11.33;75.10;100594.63;5022819;28;20211;-69
2023/11/07 09:05:20;;;;;;;2.33;0.97;;;;;;;11.39;75.11;100592.56;5022287;28;20246;-71
2023/11/07 09:07:47;;;;;;;1.00;0.70;;;;;;;11.43;74.66;100591.56;5023694;28;20195;-70
2023/11/07 09:10:13;;;;;;;2.30;0.80;;;;;;;11.47;75.22;100600.38;5016163;28;20693;-70
2023/11/07 09:12:41;;;;;;;1.77;0.80;;;;;;;11.52;74.86;100597.50;5021396;28;20207;-68
2023/11/07 09:15:10;;;;;;;1.00;0.80;;;;;;;11.57;75.64;100599.16;5023662;28;20226;-70
2023/11/07 09:17:38;;;;;;;1.27;0.80;;;;;;;11.61;75.55;100600.06;5022665;28;20214;-69
2023/11/07 09:20:09;;;;;;;1.20;0.70;;;;;;;11.65;73.96;100604.34;5022197;28;20585;-71
2023/11/07 09:22:36;;;;;;;1.97;0.80;;;;;;;11.71;73.99;100607.56;5021237;28;20220;-69
2023/11/07 09:25:02;;;;;;;1.47;0.70;;;;;;;11.75;73.91;100603.91;5022644;28;20247;-70
2023/11/07 09:27:29;;;;;;;1.77;0.70;;;;;;;11.79;72.66;100611.94;5019862;28;20285;-70
2023/11/07 09:29:55;;;;;;;1.97;0.90;;;;;;;11.83;72.67;100608.31;5021208;28;20224;-71
2023/11/07 09:32:22;;;;;;;2.63;0.90;;;;;;;11.88;72.23;100608.09;5022438;28;20323;-71
2023/11/07 09:34:50;;;;;;;1.93;1.13;;;;;;;11.93;73.47;100609.75;5020119;28;20689;-70
2023/11/07 09:37:17;;;;;;;3.40;0.97;;;;;;;11.95;71.83;100613.59;5023469;28;20262;-71
2023/11/07 09:39:43;;;;;;;3.90;0.77;;;;;;;11.98;72.21;100602.34;5018587;28;20227;-70
2023/11/07 09:42:09;;;;;;;0.90;0.70;;;;;;;12.05;73.23;100615.00;5021645;28;20658;-71
2023/11/07 09:44:38;;;;;;;3.90;1.00;;;;;;;12.09;72.20;100607.94;5021260;28;20207;-69
2023/11/07 09:47:05;;;;;;;1.27;0.80;;;;;;;12.16;73.77;100605.53;5020853;28;20207;-71
2023/11/07 09:49:32;;;;;;;2.30;0.70;;;;;;;12.20;72.74;100616.97;5021634;28;20258;-71
2023/11/07 09:52:04;;;;;;;3.40;0.80;;;;;;;12.24;73.15;100610.69;5022718;28;20195;-70
2023/11/07 09:54:33;;;;;;;0.73;0.67;;;;;;;12.31;71.91;100610.13;5020075;28;20200;-71
2023/11/07 09:57:02;;;;;;;1.33;0.93;;;;;;;12.37;74.43;100609.53;5020739;28;20570;-71
2023/11/07 09:59:34;;;;;;;1.20;0.70;;;;;;;12.41;70.88;100605.09;5021162;28;20216;-70
2023/11/07 10:02:00;;;;;;;1.17;0.70;;;;;;;12.44;70.89;100601.78;5023657;28;20487;-71
2023/11/07 10:04:28;;;;;;;1.77;0.60;;;;;;;12.48;70.99;100609.84;5022134;28;20207;-71
2023/11/07 10:06:54;;;;;;;1.50;0.90;;;;;;;12.52;71.74;100600.88;5019520;28;20227;-71
2023/11/07 10:09:23;;;;;;;1.80;1.00;;;;;;;12.56;73.08;100596.44;5023132;28;20203;-70
2023/11/07 10:11:53;;;;;;;2.70;1.10;;;;;;;12.59;68.79;100605.59;5020342;28;20274;-70
2023/11/07 10:14:20;;;;;;;2.83;0.73;;;;;;;12.62;68.97;100608.34;5021511;28;20274;-70
2023/11/07 10:16:50;;;;;;;1.23;0.83;;;;;;;12.63;68.06;100595.88;5021149;28;20282;-70
2023/11/07 10:19:20;;;;;;;1.70;0.70;;;;;;;12.68;71.14;100599.03;5022695;28;20213;-70
2023/11/07 10:21:47;;;;;;;1.50;0.87;;;;;;;12.70;68.23;100602.13;5021982;28;20216;-70
2023/11/07 10:24:14;;;;;;;0.67;0.67;;;;;;;12.73;68.30;100593.50;5019724;28;20215;-71
2023/11/07 10:26:51;;;;;;;1.07;0.70;;;;;;;12.75;69.02;100603.75;5021003;28;20315;-71
2023/11/07 10:29:25;;;;;;;1.17;0.90;;;;;;;12.75;68.18;100599.22;5022549;28;20888;-70
2023/11/07 10:31:59;;;;;;;2.70;0.77;;;;;;;12.77;67.96;100597.00;5020129;28;20613;-70
2023/11/07 10:34:26;;;;;;;1.30;0.90;;;;;;;12.80;68.68;100595.56;5022455;28;20211;-70
2023/11/07 10:36:52;;;;;;;2.07;0.87;;;;;;;12.83;68.59;100598.28;5019711;28;20726;-69
2023/11/07 10:39:23;;;;;;;1.20;0.80;;;;;;;12.84;67.23;100594.53;5023410;28;20214;-70
2023/11/07 10:41:51;;;;;;;3.60;0.93;;;;;;;12.89;66.66;100590.88;5020759;28;20212;-70
2023/11/07 10:44:23;;;;;;;2.17;0.53;;;;;;;12.96;68.50;100583.13;5018219;28;20205;-71
2023/11/07 10:46:50;;;;;;;2.17;0.70;;;;;;;13.02;66.11;100587.84;5020069;28;20230;-71
2023/11/07 10:49:18;;;;;;;1.27;0.80;;;;;;;13.07;65.89;100578.84;5020962;28;20200;-70
2023/11/07 10:51:44;;;;;;;1.20;0.60;;;;;;;13.07;66.15;100584.16;5023067;28;20228;-70
2023/11/07 10:54:11;;;;;;;2.77;0.60;;;;;;;13.09;66.52;100569.44;5020259;28;20211;-68
2023/11/07 10:56:40;;;;;;;1.77;1.00;;;;;;;13.11;67.82;100583.16;5020694;28;20235;-70
2023/11/07 10:59:14;;;;;;;1.23;0.70;;;;;;;13.14;65.67;100576.41;5019590;28;20424;-69
2023/11/07 11:01:41;;;;;;;3.70;0.60;;;;;;;13.19;66.69;100570.84;5024063;28;20314;-69
2023/11/07 11:04:11;;;;;;;2.40;0.80;;;;;;;13.25;65.96;100575.53;4999312;28;20216;-71
2023/11/07 11:06:38;;;;;;;0.87;0.60;;;;;;;13.30;65.76;100567.31;5019806;28;20230;-71
2023/11/07 11:09:10;;;;;;;0.83;0.70;;;;;;;13.35;66.71;100566.31;5020970;28;20224;-70
2023/11/07 11:11:37;;;;;;;0.93;0.60;;;;;;;13.35;64.62;100567.06;5019330;28;20200;-70
2023/11/07 11:14:08;;;;;;;2.43;0.70;;;;;;;13.35;68.23;100576.91;5019693;28;20200;-71
2023/11/07 11:16:38;;;;;;;5.07;0.80;;;;;;;13.33;64.71;100571.94;5018039;28;20224;-70
2023/11/07 11:19:15;;;;;;;2.47;0.70;;;;;;;13.30;65.45;100572.63;5019257;28;20209;-71
2023/11/07 11:21:51;;;;;;;1.10;0.70;;;;;;;13.28;64.87;100574.84;5020064;28;20721;-71
2023/11/07 11:24:25;;;;;;;2.10;0.57;;;;;;;13.30;68.95;100569.97;5021806;28;20206;-70
2023/11/07 11:26:56;;;;;;;1.77;0.67;;;;;;;13.27;66.58;100564.59;5017942;28;20243;-71
2023/11/07 11:29:24;;;;;;;1.40;0.80;;;;;;;13.29;66.10;100572.94;5021369;28;20205;-69
2023/11/07 11:31:52;;;;;;;1.90;0.73;;;;;;;13.29;63.87;100565.00;5020190;28;20212;-69